Athens, Illinois
Current Conditions -  °F | °C
As of 6:52 AM on Thursday 27 Nov 2014 (Local Time) from KSPI Reporting Station
Overcast Overcast  
Wind Chill: -9°   Ceiling: 2800
Heat Index: -3°   Visibility: 7mi
Dew Point: -6°   Wind: 12mph
Humidity: 84%   Direction: 290°WNW
Pressure: 30.39"   Gusts: NA
Location:  39.96°N, 89.72°W
Report Text: KSPI 271252Z 29010KT 7SM OVC028 M03/M06 A3039 RMK AO2 SLP299 T10331056
Loading
Personal Weather Stations






























Interactive Weather Map New forecast layout! Learn more

10-Day Weather Forecast

Advertisements
Track Severe Weather on mobile